sensor_id;sensor_type;location;lat;lon;timestamp;temperature;humidity
15386;DHT22;7791;47.246;9.648;2023-01-19T01:50:44;-1.30;99.90
15386;DHT22;7791;47.246;9.648;2023-01-19T01:53:20;-1.30;99.90
15386;DHT22;7791;47.246;9.648;2023-01-19T01:56:06;-1.20;99.90
15386;DHT22;7791;47.246;9.648;2023-01-19T02:01:41;-1.00;99.90
15386;DHT22;7791;47.246;9.648;2023-01-19T02:04:17;-0.90;99.90
15386;DHT22;7791;47.246;9.648;2023-01-19T02:06:55;-0.80;99.90
15386;DHT22;7791;47.246;9.648;2023-01-19T02:09:32;-0.70;99.90
15386;DHT22;7791;47.246;9.648;2023-01-19T02:12:19;-0.70;99.90
15386;DHT22;7791;47.246;9.648;2023-01-19T02:17:23;-1.00;99.90
15386;DHT22;7791;47.246;9.648;2023-01-19T02:19:55;-0.90;99.90
15386;DHT22;7791;47.246;9.648;2023-01-19T02:22:29;-0.80;99.90
15386;DHT22;7791;47.246;9.648;2023-01-19T02:25:07;-0.80;99.90
15386;DHT22;7791;47.246;9.648;2023-01-19T02:27:38;-0.90;99.90
15386;DHT22;7791;47.246;9.648;2023-01-19T02:30:08;-0.80;99.90
15386;DHT22;7791;47.246;9.648;2023-01-19T02:51:00;-0.20;99.90
15386;DHT22;7791;47.246;9.648;2023-01-19T02:53:59;-0.20;99.90
15386;DHT22;7791;47.246;9.648;2023-01-19T02:56:53;-0.10;99.90
15386;DHT22;7791;47.246;9.648;2023-01-19T02:59:33;-0.10;99.90
15386;DHT22;7791;47.246;9.648;2023-01-19T03:05:25;0.00;99.90
15386;DHT22;7791;47.246;9.648;2023-01-19T03:08:13;0.00;99.90
15386;DHT22;7791;47.246;9.648;2023-01-19T03:10:45;0.00;99.90
15386;DHT22;7791;47.246;9.648;2023-01-19T03:13:20;0.00;99.90
15386;DHT22;7791;47.246;9.648;2023-01-19T03:15:56;0.00;99.90
15386;DHT22;7791;47.246;9.648;2023-01-19T03:18:49;-0.20;99.90
15386;DHT22;7791;47.246;9.648;2023-01-19T03:21:17;-0.10;99.90
15386;DHT22;7791;47.246;9.648;2023-01-19T03:23:51;-0.10;99.90
15386;DHT22;7791;47.246;9.648;2023-01-19T03:26:24;-0.10;99.90
15386;DHT22;7791;47.246;9.648;2023-01-19T03:28:55;-0.10;99.90
15386;DHT22;7791;47.246;9.648;2023-01-19T03:31:24;0.00;99.90
15386;DHT22;7791;47.246;9.648;2023-01-19T03:39:59;-0.10;99.90
15386;DHT22;7791;47.246;9.648;2023-01-19T03:42:28;-0.10;99.90
15386;DHT22;7791;47.246;9.648;2023-01-19T03:45:00;-0.10;99.90
15386;DHT22;7791;47.246;9.648;2023-01-19T03:47:29;-0.20;99.90
15386;DHT22;7791;47.246;9.648;2023-01-19T03:49:58;-0.20;99.90
15386;DHT22;7791;47.246;9.648;2023-01-19T03:52:29;-0.20;99.90
15386;DHT22;7791;47.246;9.648;2023-01-19T03:55:00;-0.20;99.90
15386;DHT22;7791;47.246;9.648;2023-01-19T03:57:28;-0.20;99.90
15386;DHT22;7791;47.246;9.648;2023-01-19T03:59:57;-0.30;99.90
15386;DHT22;7791;47.246;9.648;2023-01-19T04:02:25;-0.30;99.90
15386;DHT22;7791;47.246;9.648;2023-01-19T04:05:09;-0.40;99.90
15386;DHT22;7791;47.246;9.648;2023-01-19T04:07:37;-0.40;99.90
15386;DHT22;7791;47.246;9.648;2023-01-19T04:10:12;-0.50;99.90
15386;DHT22;7791;47.246;9.648;2023-01-19T04:12:40;-0.60;99.90
15386;DHT22;7791;47.246;9.648;2023-01-19T04:15:11;-0.70;99.90
15386;DHT22;7791;47.246;9.648;2023-01-19T04:17:40;-0.80;99.90
15386;DHT22;7791;47.246;9.648;2023-01-19T04:20:28;-0.90;99.90
15386;DHT22;7791;47.246;9.648;2023-01-19T04:22:58;-1.00;99.90
15386;DHT22;7791;47.246;9.648;2023-01-19T04:25:33;-1.10;99.90
15386;DHT22;7791;47.246;9.648;2023-01-19T04:27:59;-1.20;99.90
15386;DHT22;7791;47.246;9.648;2023-01-19T04:30:25;-1.30;99.90
15386;DHT22;7791;47.246;9.648;2023-01-19T04:32:56;-1.40;99.90
15386;DHT22;7791;47.246;9.648;2023-01-19T04:35:24;-1.40;99.90
15386;DHT22;7791;47.246;9.648;2023-01-19T04:37:51;-1.40;99.90
15386;DHT22;7791;47.246;9.648;2023-01-19T04:40:19;-1.40;99.90
15386;DHT22;7791;47.246;9.648;2023-01-19T04:42:48;-1.40;99.90
15386;DHT22;7791;47.246;9.648;2023-01-19T04:45:14;-1.30;99.90
15386;DHT22;7791;47.246;9.648;2023-01-19T04:47:42;-1.20;99.90
15386;DHT22;7791;47.246;9.648;2023-01-19T04:50:09;-1.10;99.90
15386;DHT22;7791;47.246;9.648;2023-01-19T04:52:35;-1.10;99.90
15386;DHT22;7791;47.246;9.648;2023-01-19T04:55:03;-1.00;99.90
15386;DHT22;7791;47.246;9.648;2023-01-19T04:57:29;-0.90;99.90
15386;DHT22;7791;47.246;9.648;2023-01-19T04:59:58;-0.80;99.90
15386;DHT22;7791;47.246;9.648;2023-01-19T05:02:25;-0.80;99.90
15386;DHT22;7791;47.246;9.648;2023-01-19T05:04:53;-0.70;99.90
15386;DHT22;7791;47.246;9.648;2023-01-19T05:07:32;-0.60;99.90
15386;DHT22;7791;47.246;9.648;2023-01-19T05:09:58;-0.60;99.90
15386;DHT22;7791;47.246;9.648;2023-01-19T05:12:26;-0.60;99.90
15386;DHT22;7791;47.246;9.648;2023-01-19T05:14:53;-0.50;99.90
15386;DHT22;7791;47.246;9.648;2023-01-19T05:17:23;-0.60;99.90
15386;DHT22;7791;47.246;9.648;2023-01-19T05:19:53;-0.80;99.90
15386;DHT22;7791;47.246;9.648;2023-01-19T05:25:22;-0.90;99.90
15386;DHT22;7791;47.246;9.648;2023-01-19T05:27:48;-0.90;99.90
15386;DHT22;7791;47.246;9.648;2023-01-19T05:30:15;-0.90;99.90
15386;DHT22;7791;47.246;9.648;2023-01-19T05:32:43;-1.10;99.90
15386;DHT22;7791;47.246;9.648;2023-01-19T05:35:09;-1.20;99.90
15386;DHT22;7791;47.246;9.648;2023-01-19T05:37:40;-1.20;99.90
15386;DHT22;7791;47.246;9.648;2023-01-19T05:40:07;-1.20;99.90
15386;DHT22;7791;47.246;9.648;2023-01-19T05:42:34;-1.30;99.90
15386;DHT22;7791;47.246;9.648;2023-01-19T05:45:13;-1.40;99.90
15386;DHT22;7791;47.246;9.648;2023-01-19T05:47:39;-1.40;99.90
15386;DHT22;7791;47.246;9.648;2023-01-19T05:50:24;-1.40;99.90
15386;DHT22;7791;47.246;9.648;2023-01-19T05:53:24;-1.30;99.90
15386;DHT22;7791;47.246;9.648;2023-01-19T05:55:51;-1.30;99.90
15386;DHT22;7791;47.246;9.648;2023-01-19T05:58:18;-1.30;99.90
15386;DHT22;7791;47.246;9.648;2023-01-19T06:00:50;-1.40;99.90
15386;DHT22;7791;47.246;9.648;2023-01-19T06:03:16;-1.40;99.90
15386;DHT22;7791;47.246;9.648;2023-01-19T06:06:17;-1.50;99.90
15386;DHT22;7791;47.246;9.648;2023-01-19T06:08:46;-1.80;99.90
15386;DHT22;7791;47.246;9.648;2023-01-19T06:11:12;-1.80;99.90
15386;DHT22;7791;47.246;9.648;2023-01-19T06:13:38;-1.80;99.90
15386;DHT22;7791;47.246;9.648;2023-01-19T06:16:05;-2.00;99.90
15386;DHT22;7791;47.246;9.648;2023-01-19T06:18:32;-2.00;99.90
15386;DHT22;7791;47.246;9.648;2023-01-19T06:21:02;-2.10;99.90
15386;DHT22;7791;47.246;9.648;2023-01-19T06:23:30;-2.10;99.90
15386;DHT22;7791;47.246;9.648;2023-01-19T06:26:20;-2.10;99.90
15386;DHT22;7791;47.246;9.648;2023-01-19T06:28:52;-2.10;99.90
15386;DHT22;7791;47.246;9.648;2023-01-19T06:31:18;-2.10;99.90
15386;DHT22;7791;47.246;9.648;2023-01-19T06:33:44;-2.20;99.90
15386;DHT22;7791;47.246;9.648;2023-01-19T06:36:11;-2.10;99.90
15386;DHT22;7791;47.246;9.648;2023-01-19T06:38:37;-2.10;99.90
15386;DHT22;7791;47.246;9.648;2023-01-19T06:41:04;-2.10;99.90
15386;DHT22;7791;47.246;9.648;2023-01-19T06:43:33;-2.10;99.90
15386;DHT22;7791;47.246;9.648;2023-01-19T06:46:02;-2.20;99.90
15386;DHT22;7791;47.246;9.648;2023-01-19T06:48:29;-2.20;99.90
15386;DHT22;7791;47.246;9.648;2023-01-19T06:50:55;-2.20;99.90
15386;DHT22;7791;47.246;9.648;2023-01-19T06:53:22;-2.20;99.90
15386;DHT22;7791;47.246;9.648;2023-01-19T06:55:49;-2.10;99.90
15386;DHT22;7791;47.246;9.648;2023-01-19T06:58:16;-2.10;99.90
15386;DHT22;7791;47.246;9.648;2023-01-19T07:00:43;-2.10;99.90
15386;DHT22;7791;47.246;9.648;2023-01-19T07:03:19;-2.00;99.90
15386;DHT22;7791;47.246;9.648;2023-01-19T07:05:45;-2.00;99.90
15386;DHT22;7791;47.246;9.648;2023-01-19T07:08:11;-2.00;99.90
15386;DHT22;7791;47.246;9.648;2023-01-19T07:10:40;-2.00;99.90
15386;DHT22;7791;47.246;9.648;2023-01-19T07:13:07;-2.00;99.90
15386;DHT22;7791;47.246;9.648;2023-01-19T07:15:33;-2.00;99.90
15386;DHT22;7791;47.246;9.648;2023-01-19T07:17:59;-2.00;99.90
15386;DHT22;7791;47.246;9.648;2023-01-19T07:20:26;-2.00;99.90
15386;DHT22;7791;47.246;9.648;2023-01-19T07:22:55;-2.00;99.90
15386;DHT22;7791;47.246;9.648;2023-01-19T07:25:25;-1.90;99.90
15386;DHT22;7791;47.246;9.648;2023-01-19T07:27:57;-1.90;99.90
15386;DHT22;7791;47.246;9.648;2023-01-19T07:30:23;-1.90;99.90
15386;DHT22;7791;47.246;9.648;2023-01-19T07:32:50;-1.80;99.90
15386;DHT22;7791;47.246;9.648;2023-01-19T07:35:15;-1.80;99.90
15386;DHT22;7791;47.246;9.648;2023-01-19T07:37:42;-1.70;99.90
15386;DHT22;7791;47.246;9.648;2023-01-19T07:40:12;-1.80;99.90
15386;DHT22;7791;47.246;9.648;2023-01-19T07:42:57;-1.70;99.90
15386;DHT22;7791;47.246;9.648;2023-01-19T07:45:23;-1.70;99.90
15386;DHT22;7791;47.246;9.648;2023-01-19T07:47:52;-1.70;99.90
15386;DHT22;7791;47.246;9.648;2023-01-19T07:50:18;-1.60;99.90
15386;DHT22;7791;47.246;9.648;2023-01-19T07:52:44;-1.50;99.90
15386;DHT22;7791;47.246;9.648;2023-01-19T07:55:12;-1.50;99.90
15386;DHT22;7791;47.246;9.648;2023-01-19T07:57:41;-1.40;99.90
15386;DHT22;7791;47.246;9.648;2023-01-19T08:00:11;-1.30;99.90
15386;DHT22;7791;47.246;9.648;2023-01-19T08:02:38;-1.30;99.90
15386;DHT22;7791;47.246;9.648;2023-01-19T08:05:04;-1.20;99.90
15386;DHT22;7791;47.246;9.648;2023-01-19T08:07:32;-1.20;99.90
15386;DHT22;7791;47.246;9.648;2023-01-19T08:09:58;-1.10;99.90
15386;DHT22;7791;47.246;9.648;2023-01-19T08:12:23;-1.10;99.90
15386;DHT22;7791;47.246;9.648;2023-01-19T08:14:51;-1.00;99.90
15386;DHT22;7791;47.246;9.648;2023-01-19T08:17:20;-1.00;99.90
15386;DHT22;7791;47.246;9.648;2023-01-19T08:19:46;-1.00;99.90
15386;DHT22;7791;47.246;9.648;2023-01-19T08:22:14;-1.00;99.90
15386;DHT22;7791;47.246;9.648;2023-01-19T08:24:39;-1.00;99.90
15386;DHT22;7791;47.246;9.648;2023-01-19T08:27:05;-0.90;99.90
15386;DHT22;7791;47.246;9.648;2023-01-19T08:29:32;-0.80;99.90
15386;DHT22;7791;47.246;9.648;2023-01-19T08:31:57;-0.60;99.90
15386;DHT22;7791;47.246;9.648;2023-01-19T08:34:26;-0.40;99.90
15386;DHT22;7791;47.246;9.648;2023-01-19T08:36:54;-0.20;99.90
15386;DHT22;7791;47.246;9.648;2023-01-19T08:39:20;0.00;99.90
15386;DHT22;7791;47.246;9.648;2023-01-19T08:41:47;0.10;99.90
15386;DHT22;7791;47.246;9.648;2023-01-19T08:44:14;0.10;99.90
15386;DHT22;7791;47.246;9.648;2023-01-19T08:46:40;0.30;99.90
15386;DHT22;7791;47.246;9.648;2023-01-19T08:49:06;0.40;99.90
15386;DHT22;7791;47.246;9.648;2023-01-19T08:51:36;0.50;99.90
15386;DHT22;7791;47.246;9.648;2023-01-19T08:54:04;0.60;99.90
15386;DHT22;7791;47.246;9.648;2023-01-19T08:56:30;0.80;99.90
15386;DHT22;7791;47.246;9.648;2023-01-19T08:58:57;1.00;99.90
15386;DHT22;7791;47.246;9.648;2023-01-19T09:01:25;1.00;99.90
15386;DHT22;7791;47.246;9.648;2023-01-19T09:03:52;1.00;99.90
15386;DHT22;7791;47.246;9.648;2023-01-19T09:06:18;1.20;99.90
15386;DHT22;7791;47.246;9.648;2023-01-19T09:08:48;1.40;99.90
15386;DHT22;7791;47.246;9.648;2023-01-19T09:11:15;1.50;99.90
15386;DHT22;7791;47.246;9.648;2023-01-19T09:13:43;1.70;99.90
15386;DHT22;7791;47.246;9.648;2023-01-19T09:16:10;1.80;99.90
15386;DHT22;7791;47.246;9.648;2023-01-19T09:18:37;1.90;99.90
15386;DHT22;7791;47.246;9.648;2023-01-19T09:21:04;1.90;99.90
15386;DHT22;7791;47.246;9.648;2023-01-19T09:23:31;2.00;99.90
15386;DHT22;7791;47.246;9.648;2023-01-19T09:26:02;2.10;99.90
15386;DHT22;7791;47.246;9.648;2023-01-19T09:28:30;2.20;99.90
15386;DHT22;7791;47.246;9.648;2023-01-19T09:33:59;2.00;99.90
15386;DHT22;7791;47.246;9.648;2023-01-19T09:36:26;1.60;99.90
15386;DHT22;7791;47.246;9.648;2023-01-19T09:38:54;1.70;99.90
15386;DHT22;7791;47.246;9.648;2023-01-19T09:41:22;2.00;99.90
15386;DHT22;7791;47.246;9.648;2023-01-19T09:43:54;2.20;99.90
15386;DHT22;7791;47.246;9.648;2023-01-19T09:46:53;2.40;99.90
15386;DHT22;7791;47.246;9.648;2023-01-19T09:49:24;2.60;99.90
15386;DHT22;7791;47.246;9.648;2023-01-19T09:51:53;2.70;99.90
15386;DHT22;7791;47.246;9.648;2023-01-19T09:54:23;2.80;99.90
15386;DHT22;7791;47.246;9.648;2023-01-19T09:56:55;2.80;99.90
15386;DHT22;7791;47.246;9.648;2023-01-19T09:59:22;2.90;99.90
15386;DHT22;7791;47.246;9.648;2023-01-19T10:02:05;3.00;99.90
15386;DHT22;7791;47.246;9.648;2023-01-19T10:04:39;3.20;99.90
15386;DHT22;7791;47.246;9.648;2023-01-19T10:20:21;5.20;99.90
15386;DHT22;7791;47.246;9.648;2023-01-19T10:22:49;5.30;99.90
15386;DHT22;7791;47.246;9.648;2023-01-19T10:25:18;5.40;99.90
15386;DHT22;7791;47.246;9.648;2023-01-19T10:27:45;5.30;99.90
15386;DHT22;7791;47.246;9.648;2023-01-19T10:30:18;5.10;99.90
15386;DHT22;7791;47.246;9.648;2023-01-19T10:32:45;5.10;99.90
15386;DHT22;7791;47.246;9.648;2023-01-19T10:35:14;4.90;99.90
15386;DHT22;7791;47.246;9.648;2023-01-19T10:37:43;4.80;99.90
15386;DHT22;7791;47.246;9.648;2023-01-19T10:40:21;4.80;99.90
15386;DHT22;7791;47.246;9.648;2023-01-19T10:42:51;5.00;99.90
15386;DHT22;7791;47.246;9.648;2023-01-19T10:45:19;5.30;99.90
15386;DHT22;7791;47.246;9.648;2023-01-19T10:47:46;5.50;99.90
15386;DHT22;7791;47.246;9.648;2023-01-19T10:50:24;5.80;99.90
15386;DHT22;7791;47.246;9.648;2023-01-19T10:52:56;5.90;99.90
15386;DHT22;7791;47.246;9.648;2023-01-19T10:55:24;6.00;99.90
15386;DHT22;7791;47.246;9.648;2023-01-19T10:57:52;6.00;99.90
15386;DHT22;7791;47.246;9.648;2023-01-19T11:00:31;6.30;99.90
15386;DHT22;7791;47.246;9.648;2023-01-19T11:02:59;6.50;99.90
15386;DHT22;7791;47.246;9.648;2023-01-19T11:05:29;6.20;99.90
15386;DHT22;7791;47.246;9.648;2023-01-19T11:07:58;6.00;99.90
15386;DHT22;7791;47.246;9.648;2023-01-19T11:10:25;5.70;99.90
15386;DHT22;7791;47.246;9.648;2023-01-19T11:13:00;5.30;99.90
15386;DHT22;7791;47.246;9.648;2023-01-19T11:15:33;5.10;99.90
15386;DHT22;7791;47.246;9.648;2023-01-19T11:18:03;4.90;99.90
15386;DHT22;7791;47.246;9.648;2023-01-19T11:20:34;4.80;99.90
15386;DHT22;7791;47.246;9.648;2023-01-19T11:23:07;4.80;99.90
15386;DHT22;7791;47.246;9.648;2023-01-19T11:25:47;4.70;99.90
15386;DHT22;7791;47.246;9.648;2023-01-19T11:28:17;4.70;99.90
15386;DHT22;7791;47.246;9.648;2023-01-19T11:30:54;4.70;99.90
15386;DHT22;7791;47.246;9.648;2023-01-19T11:33:25;4.60;99.90
15386;DHT22;7791;47.246;9.648;2023-01-19T13:12:35;4.50;99.90
15386;DHT22;7791;47.246;9.648;2023-01-19T13:15:32;4.40;99.90
15386;DHT22;7791;47.246;9.648;2023-01-19T13:18:01;4.30;99.90
15386;DHT22;7791;47.246;9.648;2023-01-19T13:20:32;4.30;99.90
15386;DHT22;7791;47.246;9.648;2023-01-19T13:23:22;4.50;99.90
15386;DHT22;7791;47.246;9.648;2023-01-19T13:25:51;4.40;99.90
15386;DHT22;7791;47.246;9.648;2023-01-19T13:28:25;4.40;99.90
15386;DHT22;7791;47.246;9.648;2023-01-19T13:30:56;4.30;99.90
15386;DHT22;7791;47.246;9.648;2023-01-19T13:33:27;4.10;99.90
15386;DHT22;7791;47.246;9.648;2023-01-19T13:35:57;4.10;99.90
15386;DHT22;7791;47.246;9.648;2023-01-19T13:38:31;3.90;99.90
15386;DHT22;7791;47.246;9.648;2023-01-19T13:41:02;4.00;99.90
15386;DHT22;7791;47.246;9.648;2023-01-19T13:43:35;3.80;99.90
15386;DHT22;7791;47.246;9.648;2023-01-19T13:46:02;3.40;99.90
15386;DHT22;7791;47.246;9.648;2023-01-19T13:48:35;3.30;99.90
15386;DHT22;7791;47.246;9.648;2023-01-19T13:51:05;2.90;99.90
15386;DHT22;7791;47.246;9.648;2023-01-19T13:53:33;2.50;99.90
15386;DHT22;7791;47.246;9.648;2023-01-19T13:56:16;2.40;99.90
15386;DHT22;7791;47.246;9.648;2023-01-19T13:58:57;2.40;99.90
15386;DHT22;7791;47.246;9.648;2023-01-19T14:01:24;2.30;99.90
15386;DHT22;7791;47.246;9.648;2023-01-19T14:03:50;2.30;99.90
15386;DHT22;7791;47.246;9.648;2023-01-19T14:06:28;2.30;99.90
15386;DHT22;7791;47.246;9.648;2023-01-19T14:09:25;2.50;99.90
15386;DHT22;7791;47.246;9.648;2023-01-19T14:12:11;2.70;99.90
15386;DHT22;7791;47.246;9.648;2023-01-19T14:14:40;2.70;99.90
15386;DHT22;7791;47.246;9.648;2023-01-19T14:17:20;2.80;99.90
15386;DHT22;7791;47.246;9.648;2023-01-19T14:19:50;2.80;99.90
15386;DHT22;7791;47.246;9.648;2023-01-19T14:22:18;2.70;99.90
15386;DHT22;7791;47.246;9.648;2023-01-19T14:24:44;2.60;99.90
15386;DHT22;7791;47.246;9.648;2023-01-19T14:27:19;2.70;99.90
15386;DHT22;7791;47.246;9.648;2023-01-19T14:29:47;2.80;99.90
15386;DHT22;7791;47.246;9.648;2023-01-19T14:32:15;2.70;99.90
15386;DHT22;7791;47.246;9.648;2023-01-19T14:34:43;2.50;99.90
15386;DHT22;7791;47.246;9.648;2023-01-19T14:37:19;2.40;99.90
15386;DHT22;7791;47.246;9.648;2023-01-19T14:39:47;2.30;99.90
15386;DHT22;7791;47.246;9.648;2023-01-19T14:42:16;2.30;99.90
15386;DHT22;7791;47.246;9.648;2023-01-19T14:44:50;2.30;99.90
15386;DHT22;7791;47.246;9.648;2023-01-19T14:47:32;2.30;99.90
15386;DHT22;7791;47.246;9.648;2023-01-19T14:50:06;2.20;99.90
15386;DHT22;7791;47.246;9.648;2023-01-19T14:52:36;2.20;99.90
15386;DHT22;7791;47.246;9.648;2023-01-19T14:55:14;2.30;99.90
15386;DHT22;7791;47.246;9.648;2023-01-19T14:57:41;2.20;99.90
15386;DHT22;7791;47.246;9.648;2023-01-19T15:00:17;2.00;99.90
15386;DHT22;7791;47.246;9.648;2023-01-19T15:02:43;1.90;99.90
15386;DHT22;7791;47.246;9.648;2023-01-19T15:05:12;1.90;99.90
15386;DHT22;7791;47.246;9.648;2023-01-19T15:07:39;1.90;99.90
15386;DHT22;7791;47.246;9.648;2023-01-19T15:10:16;1.80;99.90
15386;DHT22;7791;47.246;9.648;2023-01-19T15:43:48;0.90;99.90
15386;DHT22;7791;47.246;9.648;2023-01-19T15:46:32;0.80;99.90
15386;DHT22;7791;47.246;9.648;2023-01-19T15:48:58;0.70;99.90
15386;DHT22;7791;47.246;9.648;2023-01-19T15:51:28;0.50;99.90
15386;DHT22;7791;47.246;9.648;2023-01-19T15:53:54;0.40;99.90
15386;DHT22;7791;47.246;9.648;2023-01-19T15:56:23;0.30;99.90
15386;DHT22;7791;47.246;9.648;2023-01-19T15:58:52;0.10;99.90
15386;DHT22;7791;47.246;9.648;2023-01-19T16:14:16;-0.50;99.90
15386;DHT22;7791;47.246;9.648;2023-01-19T16:16:47;-0.60;99.90
15386;DHT22;7791;47.246;9.648;2023-01-19T16:19:14;-0.70;99.90
15386;DHT22;7791;47.246;9.648;2023-01-19T16:21:41;-0.70;99.90
15386;DHT22;7791;47.246;9.648;2023-01-19T16:24:10;-0.80;99.90
15386;DHT22;7791;47.246;9.648;2023-01-19T16:26:35;-0.80;99.90
15386;DHT22;7791;47.246;9.648;2023-01-19T16:29:04;-0.90;99.90
15386;DHT22;7791;47.246;9.648;2023-01-19T16:31:32;-1.00;99.90
15386;DHT22;7791;47.246;9.648;2023-01-19T16:34:05;-1.00;99.90
15386;DHT22;7791;47.246;9.648;2023-01-19T16:36:40;-1.10;99.90
15386;DHT22;7791;47.246;9.648;2023-01-19T16:39:12;-1.20;99.90
15386;DHT22;7791;47.246;9.648;2023-01-19T16:41:39;-1.30;99.90
15386;DHT22;7791;47.246;9.648;2023-01-19T16:44:05;-1.30;99.90
15386;DHT22;7791;47.246;9.648;2023-01-19T16:46:36;-1.50;99.90
15386;DHT22;7791;47.246;9.648;2023-01-19T16:49:12;-1.60;99.90
15386;DHT22;7791;47.246;9.648;2023-01-19T16:51:39;-1.60;99.90
15386;DHT22;7791;47.246;9.648;2023-01-19T16:54:13;-1.60;99.90
15386;DHT22;7791;47.246;9.648;2023-01-19T16:56:41;-1.60;99.90
15386;DHT22;7791;47.246;9.648;2023-01-19T16:59:10;-1.70;99.90
15386;DHT22;7791;47.246;9.648;2023-01-19T17:01:40;-1.80;99.90
15386;DHT22;7791;47.246;9.648;2023-01-19T17:04:07;-1.90;99.90
15386;DHT22;7791;47.246;9.648;2023-01-19T17:06:34;-2.00;99.90
15386;DHT22;7791;47.246;9.648;2023-01-19T17:09:00;-2.10;99.90
15386;DHT22;7791;47.246;9.648;2023-01-19T17:11:29;-2.20;99.90
15386;DHT22;7791;47.246;9.648;2023-01-19T17:13:57;-2.30;99.90
15386;DHT22;7791;47.246;9.648;2023-01-19T17:16:26;-2.40;99.90
15386;DHT22;7791;47.246;9.648;2023-01-19T17:18:59;-2.50;99.90
15386;DHT22;7791;47.246;9.648;2023-01-19T17:21:29;-2.50;99.90
15386;DHT22;7791;47.246;9.648;2023-01-19T17:23:56;-2.60;99.90
15386;DHT22;7791;47.246;9.648;2023-01-19T17:26:28;-2.60;99.90
15386;DHT22;7791;47.246;9.648;2023-01-19T17:29:14;-2.70;99.90
15386;DHT22;7791;47.246;9.648;2023-01-19T17:31:40;-2.80;99.90
15386;DHT22;7791;47.246;9.648;2023-01-19T17:34:07;-2.90;99.90
15386;DHT22;7791;47.246;9.648;2023-01-19T17:36:38;-2.90;99.90
15386;DHT22;7791;47.246;9.648;2023-01-19T17:39:08;-2.90;99.90
15386;DHT22;7791;47.246;9.648;2023-01-19T17:41:35;-3.00;99.90
15386;DHT22;7791;47.246;9.648;2023-01-19T17:44:03;-3.00;99.90
15386;DHT22;7791;47.246;9.648;2023-01-19T17:46:36;-3.10;99.90
15386;DHT22;7791;47.246;9.648;2023-01-19T17:49:04;-3.20;99.90
15386;DHT22;7791;47.246;9.648;2023-01-19T17:54:36;-3.40;99.90
15386;DHT22;7791;47.246;9.648;2023-01-19T17:57:02;-3.50;99.90
15386;DHT22;7791;47.246;9.648;2023-01-19T17:59:27;-3.60;99.90
15386;DHT22;7791;47.246;9.648;2023-01-19T18:01:53;-3.70;99.90
15386;DHT22;7791;47.246;9.648;2023-01-19T18:04:21;-3.80;99.90
15386;DHT22;7791;47.246;9.648;2023-01-19T18:06:58;-3.90;99.90
15386;DHT22;7791;47.246;9.648;2023-01-19T18:09:24;-3.90;99.90
15386;DHT22;7791;47.246;9.648;2023-01-19T18:11:51;-3.90;99.90
15386;DHT22;7791;47.246;9.648;2023-01-19T18:14:18;-3.90;99.90
15386;DHT22;7791;47.246;9.648;2023-01-19T18:16:45;-4.00;99.90
15386;DHT22;7791;47.246;9.648;2023-01-19T18:19:10;-4.10;99.90
15386;DHT22;7791;47.246;9.648;2023-01-19T18:21:37;-4.10;99.90
15386;DHT22;7791;47.246;9.648;2023-01-19T18:24:08;-4.10;99.90
15386;DHT22;7791;47.246;9.648;2023-01-19T18:26:34;-4.10;99.90
15386;DHT22;7791;47.246;9.648;2023-01-19T18:29:03;-4.00;99.90
15386;DHT22;7791;47.246;9.648;2023-01-19T18:31:33;-4.10;99.90
15386;DHT22;7791;47.246;9.648;2023-01-19T18:34:00;-4.10;99.90
15386;DHT22;7791;47.246;9.648;2023-01-19T18:36:29;-4.20;99.90
15386;DHT22;7791;47.246;9.648;2023-01-19T18:38:56;-4.20;99.90
15386;DHT22;7791;47.246;9.648;2023-01-19T18:41:22;-4.20;99.90
15386;DHT22;7791;47.246;9.648;2023-01-19T18:43:49;-4.20;99.90
15386;DHT22;7791;47.246;9.648;2023-01-19T18:46:18;-4.20;99.90
15386;DHT22;7791;47.246;9.648;2023-01-19T18:48:43;-4.20;99.90
15386;DHT22;7791;47.246;9.648;2023-01-19T18:51:11;-4.20;99.90
15386;DHT22;7791;47.246;9.648;2023-01-19T18:53:39;-4.20;99.90
15386;DHT22;7791;47.246;9.648;2023-01-19T18:56:09;-4.20;99.90
15386;DHT22;7791;47.246;9.648;2023-01-19T18:58:37;-4.30;99.90
15386;DHT22;7791;47.246;9.648;2023-01-19T19:01:03;-4.50;99.90
15386;DHT22;7791;47.246;9.648;2023-01-19T19:03:33;-4.50;99.90
15386;DHT22;7791;47.246;9.648;2023-01-19T19:06:01;-4.50;99.90
15386;DHT22;7791;47.246;9.648;2023-01-19T19:08:28;-4.50;99.90
15386;DHT22;7791;47.246;9.648;2023-01-19T19:10:56;-4.50;99.90
15386;DHT22;7791;47.246;9.648;2023-01-19T19:13:27;-4.50;99.90
15386;DHT22;7791;47.246;9.648;2023-01-19T19:16:00;-4.40;99.90
15386;DHT22;7791;47.246;9.648;2023-01-19T19:18:26;-4.30;99.90
15386;DHT22;7791;47.246;9.648;2023-01-19T19:20:54;-4.30;99.90
15386;DHT22;7791;47.246;9.648;2023-01-19T19:23:21;-4.20;99.90
15386;DHT22;7791;47.246;9.648;2023-01-19T19:25:49;-4.10;99.90
15386;DHT22;7791;47.246;9.648;2023-01-19T19:28:17;-4.00;99.90
15386;DHT22;7791;47.246;9.648;2023-01-19T19:30:45;-3.90;99.90
15386;DHT22;7791;47.246;9.648;2023-01-19T19:33:14;-3.90;99.90
15386;DHT22;7791;47.246;9.648;2023-01-19T19:35:41;-3.80;99.90
15386;DHT22;7791;47.246;9.648;2023-01-19T19:38:10;-3.80;99.90
15386;DHT22;7791;47.246;9.648;2023-01-19T19:40:36;-3.80;99.90
15386;DHT22;7791;47.246;9.648;2023-01-19T19:43:05;-3.70;99.90
15386;DHT22;7791;47.246;9.648;2023-01-19T19:45:31;-3.80;99.90
15386;DHT22;7791;47.246;9.648;2023-01-19T19:47:58;-3.80;99.90
15386;DHT22;7791;47.246;9.648;2023-01-19T19:50:24;-3.80;99.90
15386;DHT22;7791;47.246;9.648;2023-01-19T19:52:50;-3.80;99.90
15386;DHT22;7791;47.246;9.648;2023-01-19T19:55:18;-3.90;99.90
15386;DHT22;7791;47.246;9.648;2023-01-19T20:01:18;-4.00;99.90
15386;DHT22;7791;47.246;9.648;2023-01-19T20:03:45;-4.20;99.90
15386;DHT22;7791;47.246;9.648;2023-01-19T20:06:20;-4.30;99.90
15386;DHT22;7791;47.246;9.648;2023-01-19T20:08:52;-4.40;99.90
15386;DHT22;7791;47.246;9.648;2023-01-19T20:11:22;-4.50;99.90
15386;DHT22;7791;47.246;9.648;2023-01-19T20:13:48;-4.60;99.90
15386;DHT22;7791;47.246;9.648;2023-01-19T20:16:16;-4.70;99.90
15386;DHT22;7791;47.246;9.648;2023-01-19T20:18:47;-4.80;99.90
15386;DHT22;7791;47.246;9.648;2023-01-19T20:21:22;-4.90;99.90
15386;DHT22;7791;47.246;9.648;2023-01-19T20:23:53;-4.90;99.90
15386;DHT22;7791;47.246;9.648;2023-01-19T20:26:27;-4.90;99.90
15386;DHT22;7791;47.246;9.648;2023-01-19T20:29:24;-5.00;99.90
15386;DHT22;7791;47.246;9.648;2023-01-19T20:31:52;-5.00;99.90
15386;DHT22;7791;47.246;9.648;2023-01-19T20:34:25;-5.10;99.90
15386;DHT22;7791;47.246;9.648;2023-01-19T20:36:53;-5.20;99.90
15386;DHT22;7791;47.246;9.648;2023-01-19T20:39:21;-5.20;99.90
15386;DHT22;7791;47.246;9.648;2023-01-19T20:41:52;-5.10;99.90
15386;DHT22;7791;47.246;9.648;2023-01-19T20:44:19;-5.10;99.90
15386;DHT22;7791;47.246;9.648;2023-01-19T20:46:57;-5.20;99.90
15386;DHT22;7791;47.246;9.648;2023-01-19T20:49:23;-5.20;99.90
15386;DHT22;7791;47.246;9.648;2023-01-19T20:51:52;-5.20;99.90
15386;DHT22;7791;47.246;9.648;2023-01-19T20:54:25;-5.20;99.90
15386;DHT22;7791;47.246;9.648;2023-01-19T20:56:52;-5.30;99.90
15386;DHT22;7791;47.246;9.648;2023-01-19T20:59:19;-5.20;99.90
15386;DHT22;7791;47.246;9.648;2023-01-19T21:01:47;-5.20;99.90
15386;DHT22;7791;47.246;9.648;2023-01-19T21:04:14;-5.20;99.90
15386;DHT22;7791;47.246;9.648;2023-01-19T21:06:40;-5.20;99.90
15386;DHT22;7791;47.246;9.648;2023-01-19T21:09:09;-5.20;99.90
15386;DHT22;7791;47.246;9.648;2023-01-19T21:11:38;-4.90;99.90
15386;DHT22;7791;47.246;9.648;2023-01-19T21:14:10;-4.90;99.90
15386;DHT22;7791;47.246;9.648;2023-01-19T21:16:44;-4.90;99.90
15386;DHT22;7791;47.246;9.648;2023-01-19T21:19:10;-4.80;99.90